createdAt,value
2019-05-29T00:01:21.896Z,8.10
2019-05-29T00:03:49.953Z,7.63
2019-05-29T00:06:18.610Z,8.00
2019-05-29T00:08:46.630Z,7.70
2019-05-29T00:11:14.632Z,7.70
2019-05-29T00:13:42.680Z,7.77
2019-05-29T00:16:10.615Z,7.67
2019-05-29T00:18:38.513Z,8.00
2019-05-29T00:21:06.464Z,7.70
2019-05-29T00:23:34.449Z,8.13
2019-05-29T00:26:02.403Z,7.47
2019-05-29T00:28:30.373Z,7.60
2019-05-29T00:30:58.372Z,7.67
2019-05-29T00:33:26.405Z,7.50
2019-05-29T00:35:54.280Z,7.20
2019-05-29T00:38:22.259Z,7.40
2019-05-29T00:40:50.268Z,8.17
2019-05-29T00:43:18.177Z,8.10
2019-05-29T00:45:46.167Z,7.90
2019-05-29T00:48:14.144Z,8.23
2019-05-29T00:50:42.068Z,8.30
2019-05-29T00:53:10.178Z,8.13
2019-05-29T00:55:38.250Z,8.10
2019-05-29T00:58:06.396Z,8.63
2019-05-29T01:00:34.288Z,8.13
2019-05-29T01:03:02.275Z,8.80
2019-05-29T01:05:30.225Z,8.60
2019-05-29T01:07:58.297Z,8.10
2019-05-29T01:10:26.249Z,8.20
2019-05-29T01:12:54.675Z,7.70
2019-05-29T01:15:22.820Z,7.83
2019-05-29T01:17:50.820Z,8.03
2019-05-29T01:20:19.907Z,8.10
2019-05-29T01:22:47.936Z,7.53
2019-05-29T01:25:16.519Z,8.07
2019-05-29T01:27:44.494Z,7.30
2019-05-29T01:30:13.129Z,7.53
2019-05-29T01:32:41.145Z,8.67
2019-05-29T01:35:09.620Z,7.70
2019-05-29T01:37:37.600Z,8.20
2019-05-29T01:40:19.236Z,7.73
2019-05-29T01:42:35.499Z,8.00
2019-05-29T01:45:07.538Z,8.07
2019-05-29T01:47:33.165Z,7.80
2019-05-29T01:50:01.160Z,7.33
2019-05-29T01:52:29.132Z,8.23
2019-05-29T01:54:57.100Z,6.90
2019-05-29T01:57:25.023Z,7.50
2019-05-29T01:59:52.923Z,7.30
2019-05-29T02:02:21.858Z,7.60
2019-05-29T02:04:49.974Z,7.00
2019-05-29T02:07:18.022Z,7.13
2019-05-29T02:09:46.014Z,7.70
2019-05-29T02:12:13.978Z,6.80
2019-05-29T02:14:41.989Z,7.97
2019-05-29T02:17:09.865Z,7.53
2019-05-29T02:19:37.888Z,8.43
2019-05-29T02:22:05.877Z,7.07
2019-05-29T02:24:33.819Z,7.50
2019-05-29T02:27:01.810Z,7.47
2019-05-29T02:29:29.804Z,7.20
2019-05-29T02:31:57.734Z,6.93
2019-05-29T02:34:27.895Z,8.10
2019-05-29T02:36:55.371Z,7.33
2019-05-29T02:39:25.101Z,7.60
2019-05-29T02:41:53.029Z,7.53
2019-05-29T02:44:21.231Z,7.60
2019-05-29T02:46:49.369Z,7.43
2019-05-29T02:49:17.334Z,7.53
2019-05-29T02:51:45.274Z,8.00
2019-05-29T02:54:13.361Z,7.60
2019-05-29T02:56:42.639Z,7.30
2019-05-29T02:59:10.834Z,7.50
2019-05-29T03:01:38.836Z,7.30
2019-05-29T03:04:06.875Z,7.23
2019-05-29T03:06:35.958Z,7.60
2019-05-29T03:09:05.643Z,7.47
2019-05-29T03:11:34.041Z,6.90
2019-05-29T03:14:02.027Z,6.60
2019-05-29T03:16:31.908Z,6.83
2019-05-29T03:18:59.695Z,6.93
2019-05-29T03:21:28.385Z,7.60
2019-05-29T03:23:56.481Z,6.90
2019-05-29T03:26:26.891Z,7.50
2019-05-29T03:28:54.146Z,7.37
2019-05-29T03:31:22.116Z,8.10
2019-05-29T03:33:50.977Z,6.90
2019-05-29T03:36:19.374Z,7.20
2019-05-29T03:38:47.389Z,6.97
2019-05-29T03:41:15.319Z,6.53
2019-05-29T03:43:43.272Z,7.03
2019-05-29T03:46:29.004Z,7.10
2019-05-29T03:48:41.063Z,7.23
2019-05-29T03:51:09.054Z,7.20
2019-05-29T03:53:38.451Z,7.20
2019-05-29T03:56:06.615Z,7.13
2019-05-29T03:58:35.165Z,6.90
2019-05-29T04:01:03.795Z,6.53
2019-05-29T04:03:33.349Z,7.30
2019-05-29T04:06:01.465Z,7.47
2019-05-29T04:08:31.036Z,7.40
2019-05-29T04:10:59.128Z,8.07
2019-05-29T04:13:27.487Z,6.57
2019-05-29T04:15:56.105Z,7.40
2019-05-29T04:18:24.869Z,6.83
2019-05-29T04:20:52.748Z,6.90
2019-05-29T04:23:20.731Z,7.17
2019-05-29T04:25:48.691Z,7.40
2019-05-29T04:28:16.678Z,7.00
2019-05-29T04:30:44.633Z,6.93
2019-05-29T04:33:12.614Z,7.10
2019-05-29T04:35:40.658Z,7.23
2019-05-29T04:38:08.869Z,6.70
2019-05-29T04:40:37.514Z,6.90
2019-05-29T04:43:06.536Z,6.90
2019-05-29T04:45:37.341Z,7.37
2019-05-29T04:48:04.209Z,7.03
2019-05-29T04:50:33.492Z,7.60
2019-05-29T04:53:01.744Z,7.27
2019-05-29T04:55:30.705Z,7.33
2019-05-29T04:57:58.737Z,7.23
2019-05-29T05:00:26.715Z,7.60
2019-05-29T05:02:54.764Z,7.40
2019-05-29T05:05:22.640Z,6.97
2019-05-29T05:07:50.629Z,7.30
2019-05-29T05:10:29.229Z,7.10
2019-05-29T05:12:57.216Z,7.33
2019-05-29T05:15:25.348Z,7.20
2019-05-29T05:17:53.263Z,6.90
2019-05-29T05:20:21.217Z,7.67
2019-05-29T05:22:49.165Z,7.60
2019-05-29T05:25:17.160Z,7.60
2019-05-29T05:27:45.118Z,7.50
2019-05-29T05:30:13.207Z,7.70
2019-05-29T05:32:41.361Z,7.33
2019-05-29T05:35:09.256Z,7.47
2019-05-29T05:37:37.201Z,7.63
2019-05-29T05:40:05.185Z,7.60
2019-05-29T05:42:33.140Z,7.67
2019-05-29T05:45:01.110Z,8.77
2019-05-29T05:47:43.416Z,8.37
2019-05-29T05:49:58.779Z,7.73
2019-05-29T05:52:26.758Z,7.80
2019-05-29T05:54:54.748Z,7.50
2019-05-29T05:57:22.676Z,7.80
2019-05-29T05:59:50.768Z,6.97
2019-05-29T06:02:18.942Z,8.00
2019-05-29T06:04:46.980Z,7.77
2019-05-29T06:07:14.885Z,7.30
2019-05-29T06:09:42.853Z,7.00
2019-05-29T06:12:10.806Z,7.23
2019-05-29T06:14:38.779Z,7.40
2019-05-29T06:17:06.786Z,7.93
2019-05-29T06:19:35.029Z,8.23
2019-05-29T06:22:03.105Z,7.00
2019-05-29T06:24:31.089Z,7.50
2019-05-29T06:26:59.065Z,8.20
2019-05-29T06:29:27.106Z,7.47
2019-05-29T06:31:55.104Z,7.60
2019-05-29T06:34:23.045Z,6.80
2019-05-29T06:36:51.038Z,8.70
2019-05-29T06:39:18.983Z,7.90
2019-05-29T06:41:46.970Z,8.33
2019-05-29T06:44:14.944Z,7.07
2019-05-29T06:46:45.142Z,8.10
2019-05-29T06:49:12.514Z,7.53
2019-05-29T06:51:41.356Z,7.97
2019-05-29T06:54:09.379Z,7.30
2019-05-29T06:56:37.731Z,7.57
2019-05-29T06:59:05.819Z,7.80
2019-05-29T07:01:35.124Z,7.23
2019-05-29T07:04:11.797Z,7.07
2019-05-29T07:06:33.089Z,7.17
2019-05-29T07:09:01.055Z,7.40
2019-05-29T07:11:29.043Z,7.00
2019-05-29T07:13:56.995Z,7.80
2019-05-29T07:16:40.917Z,7.43
2019-05-29T07:19:23.840Z,7.37
2019-05-29T07:21:26.461Z,7.00
2019-05-29T07:23:55.223Z,7.37
2019-05-29T07:26:23.126Z,7.00
2019-05-29T07:29:07.385Z,6.87
2019-05-29T07:31:20.859Z,7.00
2019-05-29T07:33:48.772Z,7.30
2019-05-29T07:36:16.811Z,7.00
2019-05-29T07:38:54.840Z,6.97
2019-05-29T07:41:14.482Z,6.97
2019-05-29T07:43:43.644Z,7.20
2019-05-29T07:46:11.873Z,7.30
2019-05-29T07:48:40.399Z,7.13
2019-05-29T07:51:08.436Z,7.67
2019-05-29T07:53:36.444Z,7.57
2019-05-29T07:56:04.421Z,7.33
2019-05-29T07:58:32.425Z,7.50
2019-05-29T08:01:11.630Z,7.47
2019-05-29T08:03:30.160Z,7.10
2019-05-29T08:05:58.387Z,6.90
2019-05-29T08:08:26.365Z,7.30
2019-05-29T08:10:54.352Z,7.60
2019-05-29T08:13:22.322Z,7.67
2019-05-29T08:16:01.589Z,7.43
2019-05-29T08:18:20.095Z,7.33
2019-05-29T08:20:48.217Z,7.33
2019-05-29T08:23:16.206Z,7.70
2019-05-29T08:25:45.355Z,7.00
2019-05-29T08:28:13.401Z,6.73
2019-05-29T08:30:46.270Z,7.40
2019-05-29T08:33:10.970Z,7.30
2019-05-29T08:35:38.927Z,7.33
2019-05-29T08:38:06.901Z,7.17
2019-05-29T08:40:34.884Z,7.30
2019-05-29T08:43:02.828Z,7.07
2019-05-29T08:45:30.797Z,6.67
2019-05-29T08:47:58.688Z,6.70
2019-05-29T08:50:26.735Z,7.73
2019-05-29T08:52:54.831Z,6.83
2019-05-29T08:55:22.797Z,7.10
2019-05-29T08:57:50.695Z,7.07
2019-05-29T09:00:18.631Z,7.70
2019-05-29T09:02:46.725Z,6.97
2019-05-29T09:05:14.810Z,7.10
2019-05-29T09:07:43.345Z,6.77
2019-05-29T09:10:11.637Z,6.80
2019-05-29T09:12:39.596Z,6.90
2019-05-29T09:15:08.818Z,6.90
2019-05-29T09:17:37.374Z,10.60
2019-05-29T09:20:05.441Z,6.97
2019-05-29T09:22:33.423Z,6.83
2019-05-29T09:25:01.384Z,7.10
2019-05-29T09:27:29.469Z,7.63
2019-05-29T09:29:57.428Z,7.33
2019-05-29T09:32:48.898Z,7.97
2019-05-29T09:34:55.093Z,8.23
2019-05-29T09:37:22.960Z,7.20
2019-05-29T09:39:50.954Z,7.73
2019-05-29T09:42:20.320Z,7.50
2019-05-29T09:44:48.541Z,7.20
2019-05-29T09:47:17.271Z,7.87
2019-05-29T09:49:46.184Z,7.43
2019-05-29T09:52:14.150Z,8.30
2019-05-29T09:54:42.041Z,8.30
2019-05-29T09:57:10.014Z,7.70
2019-05-29T09:59:37.964Z,7.90
2019-05-29T10:02:08.785Z,8.10
2019-05-29T10:04:35.656Z,7.27
2019-05-29T10:07:04.868Z,7.63
2019-05-29T10:09:33.114Z,7.30
2019-05-29T10:12:04.968Z,7.77
2019-05-29T10:14:30.792Z,7.50
2019-05-29T10:17:04.520Z,7.83
2019-05-29T10:19:28.475Z,7.20
2019-05-29T10:21:57.994Z,7.30
2019-05-29T10:24:26.155Z,7.90
2019-05-29T10:26:55.568Z,7.90
2019-05-29T10:29:23.840Z,8.30
2019-05-29T10:31:53.416Z,7.43
2019-05-29T10:34:21.619Z,7.50
2019-05-29T10:36:51.735Z,8.10
2019-05-29T10:39:19.294Z,7.67
2019-05-29T10:41:47.301Z,7.27
2019-05-29T10:44:15.334Z,7.60
2019-05-29T10:46:45.978Z,7.57
2019-05-29T10:49:13.066Z,7.77
2019-05-29T10:51:58.085Z,6.80
2019-05-29T10:54:10.805Z,6.97
2019-05-29T10:56:38.781Z,7.73
2019-05-29T10:59:06.770Z,7.10
2019-05-29T11:01:34.889Z,6.87
2019-05-29T11:04:02.944Z,6.90
2019-05-29T11:06:30.916Z,6.70
2019-05-29T11:08:58.906Z,6.50
2019-05-29T11:11:26.932Z,7.10
2019-05-29T11:13:55.209Z,6.53
2019-05-29T11:16:23.255Z,7.33
2019-05-29T11:18:51.307Z,7.23
2019-05-29T11:21:19.290Z,7.37
2019-05-29T11:23:47.703Z,6.83
2019-05-29T11:26:15.741Z,7.20
2019-05-29T11:28:43.915Z,7.20
2019-05-29T11:31:11.891Z,6.70
2019-05-29T11:33:39.862Z,6.60
2019-05-29T11:36:12.987Z,6.50
2019-05-29T11:38:37.610Z,6.67
2019-05-29T11:41:25.192Z,6.97
2019-05-29T11:43:35.296Z,6.47
2019-05-29T11:46:03.262Z,7.17
2019-05-29T11:48:31.251Z,7.03
2019-05-29T11:50:59.215Z,7.03
2019-05-29T11:53:27.239Z,6.80
2019-05-29T11:55:55.892Z,6.70
2019-05-29T11:58:31.006Z,6.97
2019-05-29T12:00:55.078Z,6.87
2019-05-29T12:03:23.170Z,7.80
2019-05-29T12:05:51.281Z,6.50
2019-05-29T12:08:19.488Z,7.40
2019-05-29T12:10:47.481Z,7.10
2019-05-29T12:13:15.787Z,6.97
2019-05-29T12:15:43.822Z,6.60
2019-05-29T12:18:23.518Z,6.60
2019-05-29T12:20:41.774Z,7.10
2019-05-29T12:23:25.155Z,6.67
2019-05-29T12:25:39.393Z,6.80
2019-05-29T12:28:07.472Z,7.07
2019-05-29T12:30:35.425Z,6.77
2019-05-29T12:33:03.384Z,7.13
2019-05-29T12:35:31.375Z,6.70
2019-05-29T12:37:59.493Z,7.27
2019-05-29T12:40:27.385Z,7.30
2019-05-29T12:42:55.757Z,7.10
2019-05-29T12:45:23.940Z,6.60
2019-05-29T12:47:53.827Z,6.53
2019-05-29T12:50:21.549Z,6.70
2019-05-29T12:52:49.592Z,7.00
2019-05-29T12:55:17.672Z,7.30
2019-05-29T12:57:45.942Z,7.40
2019-05-29T13:00:14.254Z,7.03
2019-05-29T13:02:42.309Z,7.93
2019-05-29T13:05:19.327Z,6.97
2019-05-29T13:07:41.434Z,6.83
2019-05-29T13:10:09.770Z,6.87
2019-05-29T13:12:37.669Z,7.43
2019-05-29T13:15:06.107Z,7.10
2019-05-29T13:17:34.091Z,7.53
2019-05-29T13:20:18.375Z,6.93
2019-05-29T13:22:31.680Z,7.40
2019-05-29T13:24:59.658Z,7.23
2019-05-29T13:27:27.699Z,7.57
2019-05-29T13:29:58.109Z,7.20
2019-05-29T13:32:25.320Z,7.57
2019-05-29T13:34:53.291Z,7.10
2019-05-29T13:37:21.352Z,7.17
2019-05-29T13:39:49.361Z,7.20
2019-05-29T13:42:17.288Z,7.20
2019-05-29T13:44:45.274Z,7.50
2019-05-29T13:47:14.035Z,7.30
2019-05-29T13:49:42.008Z,7.03
2019-05-29T13:52:12.532Z,7.20
2019-05-29T13:54:39.702Z,7.00
2019-05-29T13:57:08.759Z,7.03
2019-05-29T13:59:36.962Z,7.23
2019-05-29T14:02:06.707Z,7.10
2019-05-29T14:04:34.553Z,7.03
2019-05-29T14:07:03.410Z,7.20
2019-05-29T14:09:32.568Z,7.17
2019-05-29T14:12:00.965Z,7.50
2019-05-29T14:14:29.090Z,7.50
2019-05-29T14:16:57.022Z,7.80
2019-05-29T14:19:24.989Z,7.57
2019-05-29T14:21:52.972Z,7.67
2019-05-29T14:24:29.148Z,7.80
2019-05-29T14:26:50.611Z,7.47
2019-05-29T14:29:18.769Z,7.77
2019-05-29T14:31:46.780Z,7.30
2019-05-29T14:34:14.765Z,7.03
2019-05-29T14:36:42.866Z,7.70
2019-05-29T14:39:12.015Z,7.37
2019-05-29T14:41:40.196Z,7.23
2019-05-29T14:44:08.243Z,7.43
2019-05-29T14:46:36.253Z,8.23
2019-05-29T14:49:04.374Z,8.00
2019-05-29T14:51:32.501Z,7.10
2019-05-29T14:54:00.492Z,7.30
2019-05-29T14:56:28.562Z,7.47
2019-05-29T14:58:56.636Z,7.37
2019-05-29T15:01:24.674Z,8.00
2019-05-29T15:03:52.681Z,7.17
2019-05-29T15:06:20.721Z,7.50
2019-05-29T15:08:48.758Z,7.87
2019-05-29T15:11:16.670Z,8.03
2019-05-29T15:13:44.629Z,8.13
2019-05-29T15:16:12.915Z,8.70
2019-05-29T15:18:40.985Z,8.00
2019-05-29T15:21:09.132Z,7.93
2019-05-29T15:23:37.128Z,7.83
2019-05-29T15:26:05.454Z,7.00
2019-05-29T15:28:33.681Z,7.50
2019-05-29T15:31:01.759Z,7.40
2019-05-29T15:33:29.824Z,8.30
2019-05-29T15:35:57.865Z,8.47
2019-05-29T15:38:25.763Z,8.07
2019-05-29T15:40:53.729Z,8.13
2019-05-29T15:43:21.686Z,7.53
2019-05-29T15:45:49.706Z,7.73
2019-05-29T15:48:17.623Z,7.10
2019-05-29T15:50:45.606Z,8.47
2019-05-29T15:53:13.571Z,8.10
2019-05-29T15:55:41.545Z,8.07
2019-05-29T15:58:09.531Z,8.00
2019-05-29T16:00:37.634Z,8.20
2019-05-29T16:03:05.821Z,8.63
2019-05-29T16:05:33.830Z,9.03
2019-05-29T16:08:01.960Z,8.03
2019-05-29T16:10:29.994Z,8.73
2019-05-29T16:12:58.038Z,8.57
2019-05-29T16:15:25.999Z,7.93
2019-05-29T16:17:53.990Z,7.17
2019-05-29T16:20:22.841Z,8.60
2019-05-29T16:22:51.068Z,8.07
2019-05-29T16:25:19.250Z,8.33
2019-05-29T16:27:47.187Z,8.20
2019-05-29T16:30:15.905Z,8.33
2019-05-29T16:32:43.959Z,8.47
2019-05-29T16:35:13.038Z,8.00
2019-05-29T16:37:41.097Z,8.43
2019-05-29T16:40:09.228Z,7.53
2019-05-29T16:42:37.246Z,7.53
2019-05-29T16:45:06.273Z,7.17
2019-05-29T16:47:34.193Z,8.10
2019-05-29T16:50:02.137Z,7.80
2019-05-29T16:52:30.134Z,8.03
2019-05-29T16:54:58.111Z,8.80
2019-05-29T16:57:26.089Z,9.50
2019-05-29T16:59:54.065Z,9.47
2019-05-29T17:02:22.078Z,10.10
2019-05-29T17:04:50.079Z,8.80
2019-05-29T17:07:18.122Z,8.80
2019-05-29T17:09:46.087Z,8.90
2019-05-29T17:12:14.351Z,8.20
2019-05-29T17:14:42.384Z,8.00
2019-05-29T17:17:10.346Z,8.13
2019-05-29T17:19:38.313Z,8.93
2019-05-29T17:22:06.291Z,8.60
2019-05-29T17:24:34.310Z,8.10
2019-05-29T17:27:02.328Z,8.07
2019-05-29T17:29:30.406Z,8.57
2019-05-29T17:31:58.381Z,8.33
2019-05-29T17:34:26.340Z,8.27
2019-05-29T17:36:54.351Z,8.30
2019-05-29T17:39:23.062Z,8.03
2019-05-29T17:41:51.081Z,7.77
2019-05-29T17:44:19.386Z,7.70
2019-05-29T17:46:47.432Z,8.33
2019-05-29T17:49:15.712Z,8.10
2019-05-29T17:51:43.766Z,8.10
2019-05-29T17:54:11.741Z,8.10
2019-05-29T17:56:39.708Z,8.20
2019-05-29T17:59:07.602Z,9.73
2019-05-29T18:01:35.628Z,8.40
2019-05-29T18:04:03.725Z,7.90
2019-05-29T18:06:31.793Z,8.50
2019-05-29T18:08:59.778Z,7.67
2019-05-29T18:11:27.802Z,9.13
2019-05-29T18:13:55.799Z,7.90
2019-05-29T18:16:23.798Z,8.20
2019-05-29T18:18:51.820Z,8.47
2019-05-29T18:21:19.837Z,8.20
2019-05-29T18:23:47.759Z,7.50
2019-05-29T18:26:15.720Z,8.27
2019-05-29T18:28:44.694Z,8.17
2019-05-29T18:31:12.690Z,8.13
2019-05-29T18:33:40.650Z,8.20
2019-05-29T18:36:08.535Z,8.40
2019-05-29T18:38:36.498Z,8.10
2019-05-29T18:41:04.555Z,8.27
2019-05-29T18:43:32.852Z,8.40
2019-05-29T18:46:00.925Z,7.80
2019-05-29T18:48:29.497Z,7.80
2019-05-29T18:50:57.806Z,7.77
2019-05-29T18:53:26.993Z,7.90
2019-05-29T18:55:55.051Z,7.93
2019-05-29T18:58:24.115Z,8.27
2019-05-29T19:00:52.328Z,8.60
2019-05-29T19:03:21.368Z,8.33
2019-05-29T19:05:49.372Z,8.00
2019-05-29T19:08:18.845Z,7.70
2019-05-29T19:10:46.870Z,8.23
2019-05-29T19:13:14.828Z,8.00
2019-05-29T19:15:42.834Z,7.40
2019-05-29T19:18:10.888Z,7.50
2019-05-29T19:20:38.952Z,7.67
2019-05-29T19:23:06.929Z,8.33
2019-05-29T19:25:34.863Z,7.20
2019-05-29T19:28:02.782Z,8.30
2019-05-29T19:30:30.937Z,7.73
2019-05-29T19:32:59.215Z,7.63
2019-05-29T19:35:27.537Z,7.80
2019-05-29T19:37:55.641Z,7.50
2019-05-29T19:40:24.027Z,7.90
2019-05-29T19:42:54.588Z,7.47
2019-05-29T19:45:22.053Z,7.73
2019-05-29T19:47:49.973Z,7.63
2019-05-29T19:50:17.954Z,8.43
2019-05-29T19:52:45.929Z,8.40
2019-05-29T19:55:14.029Z,8.07
2019-05-29T19:57:54.583Z,7.90
2019-05-29T20:00:13.186Z,8.90
2019-05-29T20:02:41.130Z,8.03
2019-05-29T20:05:09.135Z,8.37
2019-05-29T20:07:37.540Z,8.07
2019-05-29T20:10:05.951Z,8.00
2019-05-29T20:12:33.880Z,8.67
2019-05-29T20:15:01.890Z,8.10
2019-05-29T20:17:29.898Z,8.33
2019-05-29T20:19:57.873Z,8.27
2019-05-29T20:22:25.861Z,9.47
2019-05-29T20:24:53.830Z,8.70
2019-05-29T20:27:21.793Z,9.03
2019-05-29T20:29:49.765Z,8.73
2019-05-29T20:32:17.765Z,10.30
2019-05-29T20:34:45.686Z,8.63
2019-05-29T20:37:14.563Z,9.20
2019-05-29T20:39:42.699Z,8.50
2019-05-29T20:42:10.741Z,9.50
2019-05-29T20:44:38.840Z,8.67
2019-05-29T20:47:06.775Z,8.60
2019-05-29T20:49:35.960Z,8.87
2019-05-29T20:52:04.155Z,8.40
2019-05-29T20:54:33.313Z,9.90
2019-05-29T20:57:10.677Z,8.87
2019-05-29T20:59:39.966Z,9.40
2019-05-29T21:02:08.003Z,8.47
2019-05-29T21:04:36.338Z,9.37
2019-05-29T21:07:04.453Z,9.10
2019-05-29T21:09:32.923Z,9.20
2019-05-29T21:12:00.986Z,9.10
2019-05-29T21:14:28.968Z,8.63
2019-05-29T21:16:57.092Z,8.33
2019-05-29T21:19:25.133Z,8.83
2019-05-29T21:21:53.176Z,8.27
2019-05-29T21:24:21.178Z,8.93
2019-05-29T21:26:49.227Z,8.70
2019-05-29T21:29:17.179Z,8.40
2019-05-29T21:31:45.815Z,7.97
2019-05-29T21:34:13.864Z,7.90
2019-05-29T21:36:42.471Z,8.77
2019-05-29T21:39:10.849Z,8.50
2019-05-29T21:41:38.783Z,8.53
2019-05-29T21:44:06.766Z,8.70
2019-05-29T21:46:34.812Z,8.73
2019-05-29T21:49:02.881Z,8.87
2019-05-29T21:51:30.906Z,8.37
2019-05-29T21:53:58.936Z,9.00
2019-05-29T21:56:26.925Z,8.97
2019-05-29T21:59:03.437Z,8.30
2019-05-29T22:01:24.636Z,9.20
2019-05-29T22:03:52.732Z,7.80
2019-05-29T22:06:20.619Z,8.10
2019-05-29T22:08:48.606Z,7.90
2019-05-29T22:11:16.688Z,8.70
2019-05-29T22:13:44.651Z,8.27
2019-05-29T22:16:12.688Z,8.70
2019-05-29T22:18:40.651Z,7.77
2019-05-29T22:21:08.577Z,8.40
2019-05-29T22:23:36.494Z,8.00
2019-05-29T22:26:04.580Z,7.90
2019-05-29T22:28:32.529Z,8.00
2019-05-29T22:31:01.593Z,7.53
2019-05-29T22:33:29.603Z,8.20
2019-05-29T22:35:57.581Z,8.60
2019-05-29T22:38:25.557Z,7.80
2019-05-29T22:40:53.824Z,7.47
2019-05-29T22:43:21.890Z,8.10
2019-05-29T22:45:50.092Z,8.07
2019-05-29T22:48:18.025Z,7.70
2019-05-29T22:50:45.921Z,7.90
2019-05-29T22:53:13.880Z,7.87
2019-05-29T22:55:41.837Z,8.97
2019-05-29T22:58:09.812Z,7.80
2019-05-29T23:00:37.793Z,8.10
2019-05-29T23:03:05.762Z,7.57
2019-05-29T23:05:33.753Z,8.30
2019-05-29T23:08:02.548Z,7.70
2019-05-29T23:10:30.640Z,8.70
2019-05-29T23:13:01.117Z,9.43
2019-05-29T23:15:28.146Z,7.30
2019-05-29T23:17:56.467Z,7.40
2019-05-29T23:20:25.423Z,8.30
2019-05-29T23:22:54.400Z,7.57
2019-05-29T23:25:22.395Z,7.50
2019-05-29T23:27:50.343Z,7.33
2019-05-29T23:30:18.330Z,7.43
2019-05-29T23:32:46.313Z,7.33
2019-05-29T23:35:14.397Z,7.87
2019-05-29T23:37:42.329Z,7.70
2019-05-29T23:40:10.290Z,7.83
2019-05-29T23:42:38.290Z,7.50
2019-05-29T23:45:06.279Z,7.80
2019-05-29T23:47:34.364Z,7.63
2019-05-29T23:50:03.212Z,8.33
2019-05-29T23:52:31.899Z,8.13
2019-05-29T23:54:59.919Z,7.50
2019-05-29T23:57:27.825Z,7.23
